createdAt,value
2019-04-05T00:02:53.491Z,5.20
2019-04-05T00:07:59.587Z,5.47
2019-04-05T00:13:03.806Z,5.50
2019-04-05T00:18:09.797Z,6.33
2019-04-05T00:23:14.025Z,5.57
2019-04-05T00:28:19.407Z,5.80
2019-04-05T00:33:24.742Z,4.73
2019-04-05T00:38:28.900Z,5.63
2019-04-05T00:43:33.052Z,5.23
2019-04-05T00:48:37.438Z,6.00
2019-04-05T00:53:41.670Z,6.47
2019-04-05T00:58:45.803Z,8.83
2019-04-05T01:03:49.945Z,5.17
2019-04-05T01:08:54.355Z,5.50
2019-04-05T01:13:58.694Z,5.63
2019-04-05T01:19:04.918Z,6.33
2019-04-05T01:24:10.241Z,7.30
2019-04-05T01:29:16.154Z,7.07
2019-04-05T01:34:20.302Z,6.17
2019-04-05T01:39:24.671Z,5.43
2019-04-05T01:44:29.958Z,5.33
2019-04-05T01:49:35.048Z,3.93
2019-04-05T01:54:39.452Z,3.50
2019-04-05T01:59:43.736Z,2.43
2019-04-05T02:04:52.603Z,2.30
2019-04-05T02:09:56.329Z,2.90
2019-04-05T02:15:01.605Z,3.90
2019-04-05T02:20:05.944Z,3.70
2019-04-05T02:25:11.435Z,3.10
2019-04-05T02:30:18.051Z,3.20
2019-04-05T02:35:22.213Z,3.70
2019-04-05T02:40:27.688Z,3.67
2019-04-05T02:45:34.569Z,3.97
2019-04-05T02:50:41.116Z,3.80
2019-04-05T02:55:46.099Z,3.70
2019-04-05T03:00:50.522Z,2.90
2019-04-05T03:05:54.788Z,3.60
2019-04-05T03:11:05.465Z,4.10
2019-04-05T03:16:12.552Z,3.50
2019-04-05T03:21:17.741Z,3.50
2019-04-05T03:26:28.018Z,2.33
2019-04-05T03:31:32.797Z,4.37
2019-04-05T03:36:37.895Z,3.10
2019-04-05T03:41:42.077Z,3.50
2019-04-05T03:46:56.327Z,4.43
2019-04-05T03:51:52.374Z,2.33
2019-04-05T03:56:56.590Z,2.20
2019-04-05T04:02:01.375Z,2.50
2019-04-05T04:07:05.558Z,2.10
2019-04-05T04:12:09.759Z,2.93
2019-04-05T04:17:14.235Z,3.70
2019-04-05T04:22:20.245Z,3.33
2019-04-05T04:27:24.433Z,3.00
2019-04-05T04:32:32.496Z,3.47
2019-04-05T04:37:37.104Z,3.37
2019-04-05T04:42:42.272Z,3.70
2019-04-05T04:47:46.762Z,2.37
2019-04-05T04:52:52.396Z,4.07
2019-04-05T04:57:56.662Z,4.03
2019-04-05T05:03:01.198Z,3.37
2019-04-05T05:08:06.282Z,3.53
2019-04-05T05:13:10.927Z,2.87
2019-04-05T05:18:15.169Z,4.00
2019-04-05T05:23:19.376Z,4.27
2019-04-05T05:28:23.623Z,3.97
2019-04-05T05:33:27.886Z,4.53
2019-04-05T05:38:32.185Z,3.57
2019-04-05T05:43:36.519Z,3.10
2019-04-05T05:48:41.425Z,4.57
2019-04-05T05:53:45.882Z,4.23
2019-04-05T05:58:50.031Z,4.57
2019-04-05T06:03:54.205Z,4.30
2019-04-05T06:08:59.626Z,4.40
2019-04-05T06:14:03.850Z,6.03
2019-04-05T06:19:08.041Z,6.30
2019-04-05T06:24:12.189Z,7.07
2019-04-05T06:29:17.659Z,8.50
2019-04-05T06:34:22.480Z,6.67
2019-04-05T06:39:28.036Z,6.77
2019-04-05T06:44:32.421Z,6.47
2019-04-05T06:49:36.946Z,5.87
2019-04-05T06:54:41.336Z,6.37
2019-04-05T06:59:51.277Z,7.17
2019-04-05T07:04:55.463Z,6.77
2019-04-05T07:10:02.735Z,7.17
2019-04-05T07:15:06.990Z,7.60
2019-04-05T07:20:14.379Z,6.47
2019-04-05T07:25:19.644Z,7.50
2019-04-05T07:30:25.353Z,6.20
2019-04-05T07:35:33.532Z,7.63
2019-04-05T07:40:37.305Z,7.63
2019-04-05T07:45:42.060Z,6.30
2019-04-05T07:50:46.312Z,6.53
2019-04-05T07:55:50.495Z,6.50
2019-04-05T08:00:55.430Z,7.00
2019-04-05T08:06:00.950Z,6.30
2019-04-05T08:11:06.116Z,5.87
2019-04-05T08:16:12.213Z,5.93
2019-04-05T08:21:16.438Z,8.00
2019-04-05T08:26:20.636Z,5.60
2019-04-05T08:31:26.686Z,6.53
2019-04-05T08:36:32.758Z,5.47
2019-04-05T08:41:37.311Z,5.60
2019-04-05T08:46:41.569Z,6.80
2019-04-05T08:51:46.080Z,5.80
2019-04-05T08:56:51.587Z,6.07
2019-04-05T09:01:55.777Z,6.50
2019-04-05T09:07:00.458Z,6.27
2019-04-05T09:12:06.301Z,5.90
2019-04-05T09:17:10.445Z,5.47
2019-04-05T09:22:14.589Z,6.50
2019-04-05T09:27:18.774Z,10.33
2019-04-05T09:32:23.260Z,7.87
2019-04-05T09:37:27.710Z,6.03
2019-04-05T09:42:31.884Z,5.50
2019-04-05T09:47:36.461Z,5.03
2019-04-05T09:52:40.630Z,5.03
2019-04-05T09:57:45.983Z,6.00
2019-04-05T10:02:56.668Z,5.83
2019-04-05T10:08:01.150Z,4.73
2019-04-05T10:13:05.372Z,4.57
2019-04-05T10:18:09.616Z,5.43
2019-04-05T10:23:13.873Z,5.73
2019-04-05T10:28:18.042Z,6.33
2019-04-05T10:33:23.307Z,6.73
2019-04-05T10:38:27.501Z,5.23
2019-04-05T10:43:31.977Z,6.93
2019-04-05T10:48:36.130Z,5.40
2019-04-05T10:53:41.839Z,7.73
2019-04-05T10:58:46.922Z,5.70
2019-04-05T11:03:51.181Z,5.70
2019-04-05T11:08:55.633Z,5.77
2019-04-05T11:14:12.938Z,6.47
2019-04-05T11:19:05.961Z,5.67
2019-04-05T11:24:10.096Z,7.07
2019-04-05T11:29:14.848Z,6.37
2019-04-05T11:34:20.168Z,7.50
2019-04-05T11:39:24.973Z,5.80
2019-04-05T11:44:39.239Z,6.77
2019-04-05T11:49:45.137Z,7.73
2019-04-05T11:54:49.262Z,7.43
2019-04-05T11:59:53.892Z,7.93
2019-04-05T12:05:00.346Z,7.77
2019-04-05T12:10:06.573Z,7.27
2019-04-05T12:15:10.917Z,7.30
2019-04-05T12:20:20.593Z,8.70
2019-04-05T12:25:26.702Z,7.33
2019-04-05T12:30:32.338Z,7.30
2019-04-05T12:35:37.675Z,7.73
2019-04-05T12:40:42.128Z,10.33
2019-04-05T12:45:48.191Z,8.27
2019-04-05T12:51:01.054Z,11.37
2019-04-05T12:55:59.163Z,9.00
2019-04-05T13:01:03.283Z,9.30
2019-04-05T13:06:07.689Z,8.47
2019-04-05T13:11:11.894Z,9.83
2019-04-05T13:16:15.997Z,10.63
2019-04-05T13:21:27.255Z,9.10
2019-04-05T13:26:27.821Z,10.07
2019-04-05T13:31:36.940Z,9.10
2019-04-05T13:36:37.928Z,9.77
2019-04-05T13:41:42.056Z,9.10
2019-04-05T13:46:55.358Z,9.63
2019-04-05T13:51:59.473Z,9.87
2019-04-05T13:57:03.740Z,9.07
2019-04-05T14:02:11.084Z,8.70
2019-04-05T14:07:15.211Z,9.23
2019-04-05T14:12:20.308Z,10.03
2019-04-05T14:17:25.643Z,7.20
2019-04-05T14:22:30.830Z,8.83
2019-04-05T14:27:35.641Z,11.10
2019-04-05T14:32:41.237Z,10.80
2019-04-05T14:37:48.311Z,9.63
2019-04-05T14:42:54.057Z,10.63
2019-04-05T14:47:59.365Z,9.63
2019-04-05T14:53:03.549Z,10.30
2019-04-05T14:58:10.335Z,13.77
2019-04-05T15:03:14.197Z,10.97
2019-04-05T15:08:20.764Z,11.03
2019-04-05T15:13:24.947Z,10.43
2019-04-05T15:18:31.166Z,10.97
2019-04-05T15:23:35.549Z,11.67
2019-04-05T15:28:39.706Z,9.53
2019-04-05T15:33:43.830Z,10.17
2019-04-05T15:38:48.010Z,10.33
2019-04-05T15:43:54.077Z,10.67
2019-04-05T15:49:00.108Z,10.57
2019-04-05T15:54:05.525Z,10.93
2019-04-05T15:59:09.986Z,11.13
2019-04-05T16:04:14.328Z,9.70
2019-04-05T16:09:18.825Z,10.07
2019-04-05T16:14:23.429Z,10.57
2019-04-05T16:19:27.837Z,10.00
2019-04-05T16:24:32.226Z,9.60
2019-04-05T16:29:36.641Z,10.63
2019-04-05T16:34:42.077Z,10.00
2019-04-05T16:39:48.126Z,10.47
2019-04-05T16:44:53.438Z,11.40
2019-04-05T16:49:57.808Z,12.57
2019-04-05T16:55:02.299Z,9.47
2019-04-05T17:00:09.922Z,10.73
2019-04-05T17:05:16.587Z,9.77
2019-04-05T17:10:21.066Z,10.57
2019-04-05T17:15:25.345Z,10.03
2019-04-05T17:20:31.156Z,10.50
2019-04-05T17:25:35.396Z,10.90
2019-04-05T17:30:39.850Z,10.67
2019-04-05T17:35:44.395Z,8.00
2019-04-05T17:40:49.205Z,8.83
2019-04-05T17:45:53.559Z,11.43
2019-04-05T17:50:58.140Z,9.33
2019-04-05T17:56:02.661Z,5.47
2019-04-05T18:01:06.992Z,7.50
2019-04-05T18:06:12.399Z,9.60
2019-04-05T18:11:17.596Z,9.07
2019-04-05T18:16:22.208Z,9.43
2019-04-05T18:21:28.082Z,10.50
2019-04-05T18:26:32.955Z,10.57
2019-04-05T18:31:37.381Z,9.67
2019-04-05T18:36:43.032Z,9.23
2019-04-05T18:41:47.396Z,11.37
2019-04-05T18:46:51.983Z,8.60
2019-04-05T18:51:56.102Z,9.07
2019-04-05T18:57:00.192Z,9.13
2019-04-05T19:02:05.008Z,8.33
2019-04-05T19:07:09.138Z,7.23
2019-04-05T19:12:13.396Z,6.57
2019-04-05T19:17:23.789Z,8.47
2019-04-05T19:22:23.350Z,8.60
2019-04-05T19:27:27.715Z,9.03
2019-04-05T19:52:56.940Z,10.03
2019-04-05T19:58:02.401Z,9.07
2019-04-05T20:03:06.525Z,11.17
2019-04-05T20:08:10.631Z,13.37
2019-04-05T20:13:15.438Z,11.70
2019-04-05T20:18:21.260Z,14.97
2019-04-05T20:23:25.483Z,13.03
2019-04-05T20:28:29.616Z,15.63
2019-04-05T20:33:34.013Z,16.63
2019-04-05T20:38:39.986Z,15.47
2019-04-05T20:43:44.178Z,17.47
2019-04-05T20:48:48.577Z,16.87
2019-04-05T20:53:52.760Z,15.87
2019-04-05T20:58:56.885Z,13.50
2019-04-05T21:04:01.065Z,19.63
2019-04-05T21:09:08.571Z,12.93
2019-04-05T21:14:13.856Z,15.47
2019-04-05T21:19:19.527Z,18.03
2019-04-05T21:24:35.704Z,16.20
2019-04-05T21:29:33.344Z,20.20
2019-04-05T21:34:37.764Z,16.30
2019-04-05T21:39:42.224Z,14.70
2019-04-05T21:44:46.520Z,16.37
2019-04-05T21:49:50.985Z,16.50
2019-04-05T21:54:55.342Z,17.83
2019-04-05T21:59:59.456Z,16.50
2019-04-05T22:05:04.133Z,19.03
2019-04-05T22:10:09.939Z,22.50
2019-04-05T22:15:14.333Z,14.63
2019-04-05T22:20:18.444Z,17.07
2019-04-05T22:25:22.895Z,15.53
2019-04-05T22:30:28.545Z,16.73
2019-04-05T22:35:32.765Z,12.57
2019-04-05T22:40:37.136Z,17.23
2019-04-05T22:45:41.248Z,15.17
2019-04-05T22:50:45.589Z,17.30
2019-04-05T22:55:49.692Z,14.27
2019-04-05T23:00:54.038Z,11.83
2019-04-05T23:05:58.609Z,16.70
2019-04-05T23:11:02.888Z,17.07
2019-04-05T23:16:07.046Z,16.53
2019-04-05T23:21:11.446Z,19.10
2019-04-05T23:26:17.080Z,19.73
2019-04-05T23:31:21.233Z,21.13
2019-04-05T23:36:25.665Z,19.00
2019-04-05T23:41:35.971Z,18.53
2019-04-05T23:46:38.786Z,16.03
2019-04-05T23:51:43.181Z,17.07
2019-04-05T23:56:47.354Z,18.07
